Time;durP1;ratioP1;P1;durP2;ratioP2;P2;SDS_P1;SDS_P2;PMS_P1;PMS_P2;Temp;Humidity;BMP_temperature;BMP_pressure;BME280_temperature;BME280_humidity;BME280_pressure;Samples;Min_cycle;Max_cycle;Signal;HPM_P1;HPM_P2
2022/01/05 00:00:18;;;;;;;2.80;1.43;;;6.30;99.90;6.20;98649.00;;;;5008360;27;118672;-72
2022/01/05 00:02:44;;;;;;;2.77;1.70;;;6.30;99.90;6.20;98659.00;;;;4993272;27;110725;-70
2022/01/05 00:05:10;;;;;;;2.43;2.00;;;6.30;99.90;6.20;98656.00;;;;4994107;27;107691;-72
2022/01/05 00:07:36;;;;;;;2.37;1.87;;;6.30;99.90;6.20;98641.00;;;;4997972;27;88451;-70
2022/01/05 00:10:03;;;;;;;2.60;2.10;;;6.30;99.90;6.10;98635.00;;;;5013632;27;117571;-70
2022/01/05 00:12:29;;;;;;;3.47;2.23;;;6.30;99.90;6.10;98639.00;;;;5013779;27;94483;-70
2022/01/05 00:14:54;;;;;;;2.83;2.13;;;6.30;99.90;6.10;98630.00;;;;4980103;27;109039;-70
2022/01/05 00:17:20;;;;;;;3.07;1.97;;;6.30;99.90;6.10;98636.00;;;;4975504;28;88364;-71
2022/01/05 00:19:46;;;;;;;2.97;1.87;;;6.30;99.90;6.10;98628.00;;;;4992086;28;119013;-71
2022/01/05 00:22:11;;;;;;;4.13;2.37;;;6.30;99.90;6.10;98627.00;;;;4973038;28;100235;-71
2022/01/05 00:24:37;;;;;;;2.83;2.10;;;6.30;99.90;6.10;98636.00;;;;4992502;28;110043;-71
2022/01/05 00:27:04;;;;;;;2.63;1.70;;;6.20;99.90;6.10;98640.00;;;;4954795;28;101555;-70
2022/01/05 00:29:30;;;;;;;3.80;2.57;;;6.30;99.90;6.10;98650.00;;;;4993148;28;103076;-72
2022/01/05 00:31:56;;;;;;;2.40;2.07;;;6.20;99.90;6.10;98661.00;;;;4955745;28;103467;-73
2022/01/05 00:34:22;;;;;;;5.87;2.10;;;6.30;99.90;6.10;98656.00;;;;4991997;27;107201;-74
2022/01/05 00:36:47;;;;;;;3.23;2.23;;;6.20;99.90;6.10;98657.00;;;;4978917;28;117580;-73
2022/01/05 00:39:13;;;;;;;3.40;2.53;;;6.20;99.90;6.10;98663.00;;;;4991523;28;116995;-75
2022/01/05 00:41:39;;;;;;;4.17;1.90;;;6.20;99.90;6.00;98659.00;;;;4973217;28;87815;-72
2022/01/05 00:44:05;;;;;;;4.30;2.03;;;6.20;99.90;6.00;98666.00;;;;4992111;28;108605;-71
2022/01/05 00:46:30;;;;;;;5.23;2.60;;;6.20;99.90;6.00;98659.00;;;;4980575;28;104180;-72
2022/01/05 00:48:56;;;;;;;3.33;2.80;;;6.20;99.90;6.00;98663.00;;;;4991540;28;88951;-76
2022/01/05 00:51:22;;;;;;;3.07;2.57;;;6.10;99.90;6.00;98656.00;;;;4963607;28;109705;-73
2022/01/05 00:53:47;;;;;;;3.20;2.50;;;6.10;99.90;6.00;98660.00;;;;4989191;28;108308;-73
2022/01/05 00:56:13;;;;;;;3.90;2.40;;;6.10;99.90;5.90;98665.00;;;;4983508;28;103226;-73
2022/01/05 00:58:39;;;;;;;5.77;3.27;;;6.10;99.90;5.90;98672.00;;;;4952906;28;116324;-74
2022/01/05 01:01:04;;;;;;;2.93;2.27;;;6.10;99.90;5.90;98667.00;;;;4975550;28;111386;-73
2022/01/05 01:03:30;;;;;;;2.97;2.47;;;6.00;99.90;5.90;98657.00;;;;4987417;28;108487;-74
2022/01/05 01:05:59;;;;;;;3.00;2.47;;;6.10;99.90;5.90;98660.00;;;;4984170;28;118303;-73
2022/01/05 01:08:25;;;;;;;3.07;2.77;;;6.00;99.90;5.90;98661.00;;;;4987258;28;87689;-76
2022/01/05 01:10:51;;;;;;;5.20;3.10;;;6.10;99.90;5.90;98656.00;;;;4957442;28;88690;-71
2022/01/05 01:13:19;;;;;;;4.23;3.27;;;6.10;99.90;5.90;98652.00;;;;4986548;27;102825;-72
2022/01/05 01:15:47;;;;;;;5.17;3.23;;;6.00;99.90;5.90;98649.00;;;;4988311;28;90760;-75
2022/01/05 01:18:15;;;;;;;4.00;2.67;;;6.00;99.90;5.90;98644.00;;;;4982637;27;88538;-75
2022/01/05 01:20:41;;;;;;;5.00;3.03;;;6.00;99.90;5.90;98645.00;;;;5004752;27;87561;-72
2022/01/05 01:23:07;;;;;;;5.57;2.93;;;6.00;99.90;5.90;98645.00;;;;5015808;27;109472;-75
2022/01/05 01:25:34;;;;;;;8.30;3.30;;;6.00;99.90;5.90;98644.00;;;;4986025;28;89290;-74
2022/01/05 01:28:00;;;;;;;7.27;2.93;;;6.00;99.90;5.80;98653.00;;;;5003924;27;89961;-74
2022/01/05 01:30:25;;;;;;;5.33;3.20;;;5.50;99.90;5.80;98647.00;;;;5008273;27;110732;-74
2022/01/05 01:32:51;;;;;;;3.50;3.20;;;6.00;99.90;5.80;98653.00;;;;5001646;27;109382;-75
2022/01/05 01:35:17;;;;;;;4.77;3.10;;;6.00;99.90;5.80;98666.00;;;;4967746;28;120854;-76
2022/01/05 01:37:42;;;;;;;4.93;3.37;;;5.90;99.90;5.80;98651.00;;;;4999360;27;117783;-74
2022/01/05 01:40:09;;;;;;;5.23;3.03;;;5.90;99.90;5.80;98641.00;;;;5011764;27;108862;-74
2022/01/05 01:42:35;;;;;;;5.80;3.27;;;5.90;99.90;5.80;98636.00;;;;4999425;27;89086;-75
2022/01/05 01:45:03;;;;;;;2.90;2.47;;;5.90;99.90;5.80;98622.00;;;;4993333;27;99387;-74
2022/01/05 01:47:29;;;;;;;5.93;3.50;;;5.90;99.90;5.70;98629.00;;;;4996624;27;97435;-75
2022/01/05 01:49:54;;;;;;;3.97;2.90;;;5.90;99.90;5.70;98639.00;;;;5011435;27;110649;-75
2022/01/05 01:52:20;;;;;;;3.93;2.83;;;5.80;99.90;5.70;98629.00;;;;5015584;27;108473;-74
2022/01/05 01:54:47;;;;;;;5.17;2.87;;;5.80;99.90;5.70;98621.00;;;;5013612;27;115917;-75
2022/01/05 01:57:13;;;;;;;6.10;3.10;;;5.80;99.90;5.70;98616.00;;;;4977282;27;87798;-74
2022/01/05 01:59:39;;;;;;;8.03;3.73;;;5.90;99.90;5.70;98630.00;;;;4997232;27;109013;-73
2022/01/05 02:02:05;;;;;;;6.87;3.40;;;5.80;99.90;5.70;98629.00;;;;4994702;27;109275;-73
2022/01/05 02:04:32;;;;;;;3.27;2.80;;;5.80;99.90;5.70;98633.00;;;;5009867;27;88112;-74
2022/01/05 02:06:58;;;;;;;3.60;2.80;;;5.80;99.90;5.70;98631.00;;;;5014586;27;88855;-74
2022/01/05 02:09:23;;;;;;;3.80;2.63;;;5.80;99.90;5.70;98633.00;;;;5014515;27;110529;-75
2022/01/05 02:11:49;;;;;;;4.73;2.73;;;5.80;99.90;5.60;98621.00;;;;4996005;27;108372;-76
2022/01/05 02:14:15;;;;;;;6.70;3.17;;;5.80;99.90;5.60;98617.00;;;;4975659;28;116949;-76
2022/01/05 02:16:43;;;;;;;4.53;2.63;;;5.80;99.90;5.70;98612.00;;;;4993506;27;111994;-76
2022/01/05 02:19:09;;;;;;;5.50;3.40;;;5.80;99.90;5.60;98610.00;;;;5014709;27;87728;-76
2022/01/05 02:21:38;;;;;;;6.13;3.13;;;5.70;99.90;5.60;98609.00;;;;4976026;27;87886;-75
2022/01/05 02:24:06;;;;;;;3.97;2.40;;;5.80;99.90;5.60;98583.00;;;;5009657;27;103773;-76
2022/01/05 02:26:33;;;;;;;4.13;2.53;;;5.80;99.90;5.60;98597.00;;;;4992335;28;88733;-77
2022/01/05 02:28:59;;;;;;;8.90;3.07;;;5.80;99.90;5.60;98598.00;;;;4991306;27;88297;-77
2022/01/05 02:31:25;;;;;;;6.20;2.87;;;5.80;99.90;5.60;98608.00;;;;5000287;27;87747;-77
2022/01/05 02:33:50;;;;;;;3.90;2.10;;;5.40;99.90;5.60;98603.00;;;;4986589;28;98360;-77
2022/01/05 02:36:19;;;;;;;3.73;2.40;;;5.80;99.90;5.60;98601.00;;;;5003907;27;117766;-77
2022/01/05 02:38:47;;;;;;;2.90;2.03;;;5.70;99.90;5.60;98609.00;;;;4993279;28;87894;-76
2022/01/05 02:41:13;;;;;;;4.50;2.20;;;5.70;99.90;5.60;98610.00;;;;5010372;27;87213;-77
2022/01/05 02:43:41;;;;;;;3.43;2.63;;;5.70;99.90;5.60;98609.00;;;;5010419;27;88442;-76
2022/01/05 02:46:20;;;;;;;2.73;2.53;;;5.70;99.90;5.60;98628.00;;;;5013140;27;88178;-76
2022/01/05 02:48:49;;;;;;;3.83;2.43;;;5.70;99.90;5.60;98626.00;;;;5005194;27;88813;-76
2022/01/05 02:51:15;;;;;;;6.60;2.43;;;5.70;99.90;5.50;98623.00;;;;4985598;28;87661;-75
2022/01/05 02:53:42;;;;;;;3.97;2.30;;;5.70;99.90;5.50;98616.00;;;;4967354;28;89038;-76
2022/01/05 02:56:08;;;;;;;4.00;2.37;;;5.60;99.90;5.50;98602.00;;;;4990387;28;104675;-74
2022/01/05 02:58:34;;;;;;;3.23;2.00;;;6.40;99.90;5.50;98590.00;;;;5001630;27;88844;-74
2022/01/05 03:01:00;;;;;;;4.77;2.17;;;5.60;99.90;5.50;98585.00;;;;4995120;27;87809;-72
2022/01/05 03:03:25;;;;;;;2.57;1.90;;;5.60;99.90;5.50;98605.00;;;;5004422;27;88800;-74
2022/01/05 03:05:51;;;;;;;1.77;1.50;;;5.60;99.90;5.50;98601.00;;;;5004989;27;87672;-73
2022/01/05 03:08:17;;;;;;;3.33;2.47;;;5.60;99.90;5.50;98574.00;;;;5003116;27;110640;-73
2022/01/05 03:10:42;;;;;;;2.63;2.37;;;5.60;99.90;5.40;98569.00;;;;4987231;28;109078;-72
2022/01/05 03:13:08;;;;;;;6.13;2.53;;;5.60;99.90;5.40;98567.00;;;;5000697;27;118944;-74
2022/01/05 03:15:37;;;;;;;3.40;1.67;;;5.60;99.90;5.40;98560.00;;;;5007535;27;117971;-74
2022/01/05 03:18:05;;;;;;;3.80;1.97;;;5.60;99.90;5.40;98568.00;;;;4995996;27;87690;-74
2022/01/05 03:20:31;;;;;;;2.43;2.17;;;5.50;99.90;5.40;98573.00;;;;4978635;28;88134;-76
2022/01/05 03:22:58;;;;;;;3.40;2.43;;;5.60;99.90;5.40;98569.00;;;;5000617;27;88132;-73
2022/01/05 03:25:25;;;;;;;2.93;2.00;;;5.50;99.90;5.40;98574.00;;;;5013434;27;103611;-75
2022/01/05 03:27:53;;;;;;;4.40;2.00;;;5.50;99.90;5.40;98575.00;;;;4994150;27;87831;-75
2022/01/05 03:30:25;;;;;;;2.63;1.63;;;5.50;99.90;5.40;98574.00;;;;4991205;28;86949;-79
2022/01/05 03:35:34;;;;;;;2.73;1.90;;;5.60;99.90;5.40;98587.00;;;;4973903;28;88088;-74
2022/01/05 03:38:01;;;;;;;3.10;1.30;;;5.50;99.90;5.40;98589.00;;;;4978047;28;88871;-74
2022/01/05 03:40:28;;;;;;;4.10;2.10;;;5.60;99.90;5.40;98584.00;;;;4978067;27;87735;-75
2022/01/05 03:42:53;;;;;;;5.77;1.50;;;5.50;99.90;5.40;98576.00;;;;5013161;27;90492;-74
2022/01/05 03:45:19;;;;;;;4.77;2.10;;;5.60;99.90;5.40;98580.00;;;;5011661;27;115511;-73
2022/01/05 03:47:45;;;;;;;2.97;1.67;;;5.60;99.90;5.50;98591.00;;;;5012118;27;94009;-73
2022/01/05 03:50:11;;;;;;;1.40;1.20;;;5.60;99.90;5.50;98577.00;;;;4990262;28;94115;-74
2022/01/05 03:52:37;;;;;;;4.03;2.63;;;5.60;99.90;5.50;98589.00;;;;5002531;27;88596;-73
2022/01/05 03:55:07;;;;;;;3.23;1.70;;;5.60;99.90;5.40;98583.00;;;;5008796;27;118856;-74
2022/01/05 03:57:33;;;;;;;2.50;2.20;;;5.60;99.90;5.40;98575.00;;;;4976796;27;88014;-76
2022/01/05 03:59:59;;;;;;;3.30;1.50;;;5.60;99.90;5.50;98583.00;;;;4991121;27;95233;-74
2022/01/05 04:02:26;;;;;;;1.87;1.03;;;6.10;99.90;5.50;98584.00;;;;4975141;27;89120;-74
2022/01/05 04:04:52;;;;;;;2.23;1.40;;;5.50;99.90;5.50;98578.00;;;;4992584;27;88992;-74
2022/01/05 04:07:18;;;;;;;2.57;1.93;;;5.60;99.90;5.50;98576.00;;;;4994567;27;87918;-73
2022/01/05 04:09:44;;;;;;;5.43;2.53;;;5.60;99.90;5.50;98574.00;;;;5016161;27;87804;-74
2022/01/05 04:12:10;;;;;;;3.87;2.07;;;5.70;99.90;5.60;98580.00;;;;5016771;27;88705;-73
2022/01/05 04:14:36;;;;;;;4.13;2.17;;;5.70;99.90;5.60;98579.00;;;;5001131;27;104194;-73
2022/01/05 04:17:02;;;;;;;5.97;2.57;;;5.70;99.90;5.60;98587.00;;;;4998269;27;87955;-73
2022/01/05 04:19:27;;;;;;;4.00;2.47;;;5.80;99.90;5.60;98571.00;;;;5004903;27;87188;-75
2022/01/05 04:21:53;;;;;;;3.43;2.30;;;5.80;99.90;5.60;98579.00;;;;4996370;27;88380;-74
2022/01/05 04:24:19;;;;;;;3.40;2.17;;;5.80;99.90;5.70;98577.00;;;;5013680;27;116401;-74
2022/01/05 04:26:44;;;;;;;3.20;2.40;;;5.80;99.90;5.70;98574.00;;;;5003207;27;110084;-74
2022/01/05 04:29:10;;;;;;;1.93;1.73;;;5.80;99.90;5.70;98579.00;;;;5011791;27;109219;-73
2022/01/05 04:31:37;;;;;;;3.63;2.73;;;5.90;99.90;5.70;98592.00;;;;5005237;27;88074;-74
2022/01/05 04:34:03;;;;;;;3.20;2.20;;;5.90;99.90;5.70;98598.00;;;;5015263;27;88723;-74
2022/01/05 04:36:29;;;;;;;4.30;2.17;;;5.80;99.90;5.80;98614.00;;;;4983576;27;87965;-74
2022/01/05 04:38:55;;;;;;;4.23;2.30;;;5.90;99.90;5.80;98599.00;;;;5009460;27;107627;-74
2022/01/05 04:41:21;;;;;;;3.87;2.53;;;5.90;99.90;5.80;98605.00;;;;5000526;27;109916;-75
2022/01/05 04:43:46;;;;;;;2.97;2.33;;;5.90;99.90;5.80;98602.00;;;;5008284;27;99299;-78
2022/01/05 04:46:12;;;;;;;2.50;1.83;;;5.90;99.90;5.80;98593.00;;;;4967491;28;87711;-77
2022/01/05 04:48:38;;;;;;;2.70;1.73;;;5.90;99.90;5.80;98594.00;;;;5006565;27;109341;-77
2022/01/05 04:51:04;;;;;;;1.63;1.00;;;5.90;99.90;5.60;98610.00;;;;5013955;27;118601;-75
2022/01/05 04:53:30;;;;;;;1.63;1.07;;;6.10;99.90;5.50;98642.00;;;;5006100;27;103866;-74
2022/01/05 04:55:56;;;;;;;1.20;1.07;;;5.70;99.90;5.20;98639.00;;;;4994855;27;90614;-74
2022/01/05 04:58:21;;;;;;;2.67;1.00;;;5.40;99.90;4.90;98651.00;;;;5012424;27;87776;-74
2022/01/05 05:00:47;;;;;;;1.07;0.63;;;5.20;99.90;4.70;98653.00;;;;4996394;28;88784;-74
2022/01/05 05:03:13;;;;;;;0.90;0.63;;;5.00;99.90;4.50;98648.00;;;;4967445;27;120658;-74
2022/01/05 05:05:39;;;;;;;0.70;0.70;;;4.80;99.90;4.30;98653.00;;;;5016062;27;87765;-72
2022/01/05 05:08:05;;;;;;;1.77;1.30;;;4.70;99.90;4.20;98658.00;;;;5015939;27;109081;-72
2022/01/05 05:10:31;;;;;;;1.63;1.43;;;4.50;99.90;4.10;98654.00;;;;5007318;27;103044;-73
2022/01/05 05:12:57;;;;;;;1.20;0.53;;;3.30;99.90;4.00;98647.00;;;;5001008;27;116914;-72
2022/01/05 05:15:23;;;;;;;0.50;0.40;;;4.20;99.90;3.90;98652.00;;;;5008327;27;110736;-74
2022/01/05 05:17:49;;;;;;;0.60;0.60;;;4.10;99.90;3.80;98649.00;;;;5005449;27;87714;-72
2022/01/05 05:20:15;;;;;;;2.50;0.90;;;4.10;99.90;3.70;98649.00;;;;5009924;27;88521;-72
2022/01/05 05:22:42;;;;;;;2.13;0.83;;;4.00;99.90;3.70;98657.00;;;;4996834;27;91120;-73
2022/01/05 05:25:08;;;;;;;2.03;0.97;;;3.90;99.90;3.70;98656.00;;;;4977903;28;88314;-73
2022/01/05 05:27:34;;;;;;;4.53;1.00;;;3.90;99.90;3.70;98658.00;;;;5001720;27;88008;-73
2022/01/05 05:29:59;;;;;;;1.00;0.90;;;3.90;99.90;3.60;98664.00;;;;5009347;27;115581;-74
2022/01/05 05:32:25;;;;;;;2.57;0.70;;;3.40;99.90;3.60;98665.00;;;;5001377;27;117074;-73
2022/01/05 05:34:51;;;;;;;5.00;0.97;;;3.80;99.90;3.60;98679.00;;;;5013072;27;111175;-74
2022/01/05 05:37:16;;;;;;;0.67;0.60;;;3.80;99.90;3.50;98666.00;;;;5010250;27;108868;-74
2022/01/05 05:39:43;;;;;;;1.33;0.90;;;3.70;99.90;3.50;98677.00;;;;4996295;27;88782;-74
2022/01/05 05:42:09;;;;;;;0.63;0.57;;;3.70;99.90;3.50;98671.00;;;;4973530;28;87716;-75
2022/01/05 05:44:35;;;;;;;0.53;0.53;;;3.70;99.90;3.50;98679.00;;;;4984515;27;108505;-75
2022/01/05 05:47:03;;;;;;;2.10;0.70;;;3.70;99.90;3.50;98692.00;;;;4990241;27;88167;-75
2022/01/05 05:49:29;;;;;;;0.70;0.57;;;3.70;99.90;3.50;98684.00;;;;5011535;27;88052;-75
2022/01/05 05:51:54;;;;;;;1.33;0.77;;;3.70;99.90;3.40;98693.00;;;;5002591;27;117138;-75
2022/01/05 05:54:20;;;;;;;2.17;0.57;;;3.70;99.90;3.40;98697.00;;;;4985159;27;109895;-74
2022/01/05 05:56:46;;;;;;;0.83;0.60;;;4.30;99.90;3.30;98690.00;;;;5006278;27;109014;-75
2022/01/05 05:59:11;;;;;;;0.83;0.50;;;3.90;99.90;3.30;98683.00;;;;4995503;27;114101;-74
2022/01/05 06:01:37;;;;;;;0.50;0.40;;;3.50;99.90;3.30;98693.00;;;;5007679;27;116657;-75
2022/01/05 06:04:03;;;;;;;0.20;0.20;;;3.60;99.90;3.20;98711.00;;;;5003963;27;110652;-75
2022/01/05 06:06:29;;;;;;;0.27;0.27;;;3.40;99.90;3.20;98707.00;;;;5000290;27;91920;-75
2022/01/05 06:08:55;;;;;;;0.27;0.27;;;3.40;99.90;3.10;98704.00;;;;5000750;27;117596;-75
2022/01/05 06:11:21;;;;;;;0.20;0.20;;;3.40;99.90;3.10;98719.00;;;;4976471;28;88204;-76
2022/01/05 06:13:47;;;;;;;0.30;0.30;;;3.40;99.90;3.10;98714.00;;;;4994542;28;96203;-74
2022/01/05 06:16:13;;;;;;;0.20;0.20;;;3.30;99.90;3.00;98715.00;;;;4995565;28;87800;-75
2022/01/05 06:18:39;;;;;;;0.30;0.30;;;3.30;99.90;3.10;98729.00;;;;4974848;28;117312;-74
2022/01/05 06:21:05;;;;;;;0.50;0.20;;;3.30;99.90;3.00;98732.00;;;;4995355;27;87068;-74
2022/01/05 06:23:30;;;;;;;0.47;0.47;;;3.30;99.90;3.00;98735.00;;;;4993885;28;110246;-74
2022/01/05 06:25:56;;;;;;;4.53;0.63;;;3.40;99.90;3.00;98732.00;;;;4993807;28;107367;-73
2022/01/05 06:28:22;;;;;;;0.20;0.20;;;3.20;99.90;3.00;98734.00;;;;4993140;28;107336;-74
2022/01/05 06:30:47;;;;;;;0.23;0.23;;;3.90;99.90;3.00;98746.00;;;;5011926;27;98346;-74
2022/01/05 06:33:13;;;;;;;1.70;0.30;;;3.20;99.90;3.00;98738.00;;;;5012969;27;110194;-75
2022/01/05 06:35:39;;;;;;;0.27;0.27;;;4.70;99.90;2.90;98744.00;;;;5015255;27;87638;-74
2022/01/05 06:38:05;;;;;;;0.30;0.30;;;3.40;99.90;2.90;98741.00;;;;5012449;27;89626;-75
2022/01/05 06:40:31;;;;;;;2.03;0.40;;;3.20;99.90;2.90;98750.00;;;;5006921;27;87999;-72
2022/01/05 06:42:58;;;;;;;0.50;0.37;;;3.10;99.90;2.90;98761.00;;;;4994092;28;87789;-74
2022/01/05 06:45:24;;;;;;;0.20;0.20;;;3.10;99.90;2.80;98765.00;;;;4976387;28;87034;-74
2022/01/05 06:47:49;;;;;;;0.40;0.20;;;3.10;99.90;2.70;98763.00;;;;4992696;28;117661;-74
2022/01/05 06:50:15;;;;;;;0.40;0.40;;;3.00;99.90;2.70;98771.00;;;;4971643;28;116731;-74
2022/01/05 06:52:41;;;;;;;0.53;0.43;;;2.90;99.90;2.60;98771.00;;;;4990377;27;88930;-73
2022/01/05 06:55:09;;;;;;;0.30;0.30;;;2.90;99.90;2.60;98798.00;;;;4993362;27;108667;-74
2022/01/05 06:57:37;;;;;;;0.73;0.67;;;2.80;99.90;2.50;98799.00;;;;4975720;28;88979;-73
2022/01/05 07:00:05;;;;;;;0.60;0.40;;;3.50;99.90;2.50;98810.00;;;;4975719;28;87646;-73
2022/01/05 07:02:30;;;;;;;0.50;0.40;;;2.80;99.90;2.40;98815.00;;;;4993379;28;87642;-73
2022/01/05 07:04:56;;;;;;;0.20;0.20;;;2.70;99.90;2.30;98821.00;;;;4993576;28;108965;-72
2022/01/05 07:07:22;;;;;;;0.53;0.30;;;3.20;99.90;2.20;98826.00;;;;4993218;28;118501;-73
2022/01/05 07:09:48;;;;;;;0.40;0.40;;;3.10;99.90;2.20;98827.00;;;;4994353;28;87691;-72
2022/01/05 07:12:14;;;;;;;0.37;0.37;;;3.10;99.90;2.10;98833.00;;;;4994004;28;87806;-72
2022/01/05 07:14:40;;;;;;;2.13;1.53;;;3.00;99.90;2.00;98841.00;;;;4992659;28;108532;-72
2022/01/05 07:17:05;;;;;;;0.57;0.40;;;2.90;99.90;1.80;98839.00;;;;4992696;28;118872;-70
2022/01/05 07:19:31;;;;;;;0.40;0.40;;;2.60;99.90;1.70;98828.00;;;;4992975;28;99170;-70
2022/01/05 07:21:57;;;;;;;0.20;0.20;;;2.20;99.90;1.70;98835.00;;;;4993723;28;90403;-70
2022/01/05 07:24:22;;;;;;;1.83;0.63;;;2.00;99.90;1.60;98832.00;;;;4992895;28;108125;-70
2022/01/05 07:26:48;;;;;;;0.47;0.40;;;2.70;99.90;1.50;98824.00;;;;4994030;28;88532;-70
2022/01/05 07:29:16;;;;;;;0.40;0.40;;;2.40;99.90;1.50;98833.00;;;;4992821;28;117148;-70
2022/01/05 07:31:42;;;;;;;3.57;2.00;;;1.80;99.90;1.50;98836.00;;;;4993986;28;87694;-74
2022/01/05 07:34:08;;;;;;;4.83;1.50;;;2.50;99.90;1.40;98843.00;;;;4993015;28;108990;-74
2022/01/05 07:36:36;;;;;;;2.30;1.10;;;1.70;99.90;1.40;98861.00;;;;4993759;28;88054;-72
2022/01/05 07:39:05;;;;;;;3.40;2.03;;;2.00;99.90;1.40;98867.00;;;;4957447;28;92205;-72
2022/01/05 07:41:32;;;;;;;3.47;1.27;;;1.70;99.90;1.40;98859.00;;;;4993724;28;88595;-73
2022/01/05 07:43:58;;;;;;;1.30;1.10;;;1.60;99.90;1.40;98873.00;;;;4976628;28;87994;-72
2022/01/05 07:46:23;;;;;;;13.30;6.10;;;1.60;99.90;1.30;98884.00;;;;4996162;28;118306;-71
2022/01/05 07:48:49;;;;;;;2.30;0.70;;;2.80;99.90;1.30;98884.00;;;;4996717;28;95491;-73
2022/01/05 07:51:15;;;;;;;1.90;0.70;;;1.60;99.90;1.30;98881.00;;;;4997047;28;87869;-73
2022/01/05 07:53:41;;;;;;;1.53;1.00;;;1.60;99.90;1.30;98883.00;;;;4996539;28;88002;-72
2022/01/05 07:56:08;;;;;;;3.00;1.03;;;2.00;99.90;1.30;98895.00;;;;4978405;28;87956;-72
2022/01/05 07:58:35;;;;;;;1.97;1.67;;;2.30;99.90;1.30;98894.00;;;;4996898;28;87692;-71
2022/01/05 08:01:03;;;;;;;1.50;1.40;;;2.30;99.90;1.30;98913.00;;;;4997428;28;87576;-71
2022/01/05 08:03:32;;;;;;;1.70;1.20;;;1.60;99.90;1.30;98922.00;;;;4978202;28;87824;-70
2022/01/05 08:06:00;;;;;;;9.03;4.67;;;1.60;99.90;1.30;98918.00;;;;4996395;28;89257;-72
2022/01/05 08:08:26;;;;;;;1.70;1.20;;;1.60;99.90;1.30;98914.00;;;;4996238;28;89457;-71
2022/01/05 08:10:52;;;;;;;2.10;1.50;;;1.60;99.90;1.30;98916.00;;;;4997434;28;87696;-71
2022/01/05 08:13:18;;;;;;;2.83;2.07;;;2.50;99.90;1.30;98915.00;;;;4995835;28;87721;-71
2022/01/05 08:15:44;;;;;;;3.77;1.70;;;1.50;99.90;1.30;98923.00;;;;4995757;28;115843;-72
2022/01/05 08:18:10;;;;;;;2.57;1.90;;;1.60;99.90;1.30;98921.00;;;;4995613;28;117497;-74
2022/01/05 08:20:35;;;;;;;14.07;5.67;;;2.30;99.90;1.30;98914.00;;;;4996912;28;88490;-72
2022/01/05 08:23:01;;;;;;;7.27;6.23;;;1.60;99.90;1.30;98924.00;;;;4996364;28;107037;-70
2022/01/05 08:25:27;;;;;;;2.53;2.33;;;1.60;99.90;1.30;98927.00;;;;4995879;28;106281;-72
2022/01/05 08:27:52;;;;;;;2.97;2.17;;;2.40;99.90;1.40;98927.00;;;;4995421;28;116916;-70
2022/01/05 08:30:24;;;;;;;4.93;2.57;;;1.60;99.90;1.40;98918.00;;;;4999186;27;88966;-72
2022/01/05 08:32:52;;;;;;;2.77;2.17;;;2.10;99.90;1.40;98918.00;;;;4998194;27;87555;-70
2022/01/05 08:35:22;;;;;;;5.03;2.77;;;1.70;99.90;1.40;98927.00;;;;5014757;27;89337;-73
2022/01/05 08:37:48;;;;;;;8.40;4.30;;;1.70;99.90;1.40;98923.00;;;;5016402;27;88177;-71
2022/01/05 08:40:17;;;;;;;5.83;3.53;;;1.70;99.90;1.50;98934.00;;;;4997833;27;87840;-70
2022/01/05 08:42:43;;;;;;;4.83;3.10;;;1.70;99.90;1.50;98934.00;;;;4997564;27;87810;-72
2022/01/05 08:45:10;;;;;;;3.67;2.70;;;1.70;99.90;1.60;98943.00;;;;4977773;28;87963;-74
2022/01/05 08:47:36;;;;;;;5.50;2.87;;;2.20;99.90;1.60;98942.00;;;;4978042;28;87990;-72
2022/01/05 08:50:03;;;;;;;5.63;3.10;;;2.40;99.90;1.60;98931.00;;;;4996454;28;87680;-74
2022/01/05 08:52:29;;;;;;;12.33;4.73;;;1.80;99.90;1.60;98948.00;;;;4995289;28;96866;-74
2022/01/05 08:54:55;;;;;;;2.50;1.87;;;1.80;99.90;1.60;98940.00;;;;4996192;27;89697;-74
2022/01/05 08:57:21;;;;;;;1.80;1.53;;;2.60;99.90;1.60;98940.00;;;;4996514;27;89624;-74
2022/01/05 08:59:51;;;;;;;2.17;1.33;;;2.10;99.90;1.60;98946.00;;;;4990097;28;87683;-74
2022/01/05 09:02:18;;;;;;;4.23;1.70;;;2.70;99.90;1.70;98954.00;;;;4996166;27;87812;-75
2022/01/05 09:04:44;;;;;;;6.40;2.30;;;1.90;99.90;1.70;98954.00;;;;4997030;27;88983;-73
2022/01/05 09:07:10;;;;;;;2.20;1.47;;;2.20;99.90;1.70;98948.00;;;;4977327;28;103951;-73
2022/01/05 09:09:36;;;;;;;2.07;1.63;;;2.50;99.90;1.80;98956.00;;;;4995896;27;100991;-72
2022/01/05 09:12:03;;;;;;;2.73;1.60;;;2.00;99.90;1.80;98953.00;;;;4996536;27;87040;-75
2022/01/05 09:14:30;;;;;;;4.87;1.80;;;2.00;99.90;1.80;98962.00;;;;4996546;27;103988;-75
2022/01/05 09:16:56;;;;;;;2.27;1.63;;;2.40;99.90;1.90;98954.00;;;;4995681;28;88916;-75
2022/01/05 09:19:22;;;;;;;6.23;2.37;;;2.10;99.90;1.90;98961.00;;;;4994796;27;110480;-75
2022/01/05 09:21:49;;;;;;;8.17;4.07;;;2.10;99.90;2.00;98973.00;;;;4991463;28;108853;-76
2022/01/05 09:24:17;;;;;;;6.63;3.90;;;2.70;99.90;2.00;98979.00;;;;4985665;28;87781;-75
2022/01/05 09:26:43;;;;;;;3.77;2.23;;;2.80;99.90;2.10;98989.00;;;;4993976;28;87899;-74
2022/01/05 09:29:09;;;;;;;3.73;2.13;;;2.20;99.90;2.10;98992.00;;;;4995913;28;87906;-75
2022/01/05 09:31:35;;;;;;;3.87;2.33;;;2.40;99.90;2.10;98988.00;;;;4997147;27;88289;-75
2022/01/05 09:34:00;;;;;;;5.03;2.57;;;2.30;99.90;2.10;98981.00;;;;4993928;27;118608;-73
2022/01/05 09:36:41;;;;;;;5.17;3.13;;;2.40;99.90;2.10;98990.00;;;;4996259;27;116029;-76
2022/01/05 09:41:59;;;;;;;4.67;3.73;;;2.50;99.90;2.20;98993.00;;;;4977112;27;87651;-76
2022/01/05 09:44:33;;;;;;;4.27;2.33;;;3.20;99.90;2.20;99008.00;;;;4979587;28;89595;-76
2022/01/05 09:47:11;;;;;;;2.47;2.10;;;2.90;99.90;2.20;98995.00;;;;5006888;27;105536;-76
2022/01/05 09:49:54;;;;;;;2.80;1.90;;;2.50;99.90;2.30;98991.00;;;;5016537;27;91893;-78
2022/01/05 09:52:22;;;;;;;9.93;2.17;;;2.50;99.90;2.30;98993.00;;;;5015386;27;87631;-76
2022/01/05 09:54:48;;;;;;;3.50;1.60;;;2.40;99.90;2.30;98998.00;;;;5010796;27;88323;-75
2022/01/05 09:57:15;;;;;;;2.13;1.50;;;2.60;99.90;2.30;98990.00;;;;5013885;27;113731;-75
2022/01/05 09:59:41;;;;;;;2.50;1.77;;;3.20;99.90;2.40;98992.00;;;;5014229;27;89235;-77
2022/01/05 10:02:07;;;;;;;4.23;1.77;;;3.20;99.90;2.40;99003.00;;;;4961551;28;109195;-77
2022/01/05 10:04:36;;;;;;;2.63;1.87;;;2.60;99.90;2.40;98997.00;;;;5006749;27;88167;-76
2022/01/05 10:07:03;;;;;;;2.03;1.57;;;2.90;99.90;2.40;99001.00;;;;5015157;27;88003;-76
2022/01/05 10:09:29;;;;;;;2.03;1.17;;;2.70;99.90;2.50;99010.00;;;;4983941;28;97586;-77
2022/01/05 10:11:55;;;;;;;4.50;1.70;;;2.60;99.90;2.50;99000.00;;;;5001969;27;88192;-76
2022/01/05 10:14:20;;;;;;;3.47;1.20;;;3.30;99.90;2.50;99004.00;;;;5008085;27;117819;-77
2022/01/05 10:17:09;;;;;;;2.63;1.83;;;2.60;99.90;2.40;99006.00;;;;5006742;27;88301;-75
2022/01/05 10:19:36;;;;;;;3.53;1.67;;;2.60;99.90;2.50;99011.00;;;;4996566;27;88144;-74
2022/01/05 10:22:04;;;;;;;4.43;1.90;;;3.30;99.90;2.50;99014.00;;;;5015458;27;87822;-77
2022/01/05 10:24:47;;;;;;;4.80;1.80;;;2.70;99.90;2.60;99019.00;;;;5014546;27;88657;-74
2022/01/05 10:27:18;;;;;;;3.90;1.73;;;2.80;99.90;2.60;99014.00;;;;4990166;28;88614;-76
2022/01/05 10:29:56;;;;;;;3.17;1.93;;;3.30;99.90;2.60;99020.00;;;;4982225;28;87795;-75
2022/01/05 10:32:24;;;;;;;2.70;1.30;;;2.80;99.90;2.60;99013.00;;;;4990817;28;87625;-76
2022/01/05 10:35:06;;;;;;;4.90;3.50;;;3.20;99.90;2.60;99010.00;;;;4999108;27;89739;-75
2022/01/05 10:37:33;;;;;;;3.87;2.27;;;2.80;99.90;2.70;99001.00;;;;5014512;27;89706;-74
2022/01/05 10:40:18;;;;;;;2.13;1.70;;;2.90;99.90;2.70;99006.00;;;;4978763;27;97444;-77
2022/01/05 10:42:44;;;;;;;2.93;1.80;;;3.00;99.90;2.80;99002.00;;;;4996633;27;87838;-73
2022/01/05 10:45:15;;;;;;;2.10;1.63;;;3.00;99.90;2.90;99005.00;;;;5015254;27;88699;-76
2022/01/05 10:47:41;;;;;;;2.53;1.97;;;3.00;99.90;3.00;99004.00;;;;4995902;27;89509;-76
2022/01/05 10:50:19;;;;;;;3.30;1.93;;;3.20;99.90;3.10;99009.00;;;;4996125;27;87849;-75
2022/01/05 10:52:57;;;;;;;4.20;1.87;;;3.20;99.90;3.20;98997.00;;;;5015100;27;87325;-75
2022/01/05 10:55:25;;;;;;;2.43;1.70;;;3.40;99.90;3.40;99006.00;;;;5014331;27;88331;-74
2022/01/05 10:57:56;;;;;;;11.17;2.10;;;3.40;99.90;3.50;98999.00;;;;4978656;27;90008;-76
2022/01/05 11:01:06;;;;;;;1.53;1.27;;;3.70;99.90;3.80;99006.00;;;;4995778;27;88993;-76
2022/01/05 11:03:39;;;;;;;4.57;2.30;;;3.80;99.90;4.00;99015.00;;;;4997408;27;87614;-80
2022/01/05 11:06:14;;;;;;;4.83;3.23;;;4.20;99.90;4.30;99017.00;;;;5014820;27;88993;-80
2022/01/05 11:09:00;;;;;;;4.00;2.27;;;4.30;99.90;4.50;99018.00;;;;5014433;27;88175;-77
2022/01/05 11:11:41;;;;;;;2.93;2.03;;;4.70;99.90;4.70;99016.00;;;;4991975;28;88358;-76